Time;durP1;ratioP1;P1;durP2;ratioP2;P2;SDS_P1;SDS_P2;PMS_P1;PMS_P2;Temp;Humidity;BMP_temperature;BMP_pressure;BME280_temperature;BME280_humidity;BME280_pressure;Samples;Min_cycle;Max_cycle;Signal;HPM_P1;HPM_P2
2021/12/26 00:00:33;;;;;;;6.32;3.05;;;;;;;14.70;68.60;95993.69;5074302;28;20079;-25
2021/12/26 00:02:59;;;;;;;5.85;3.33;;;;;;;14.75;68.47;96003.94;5074613;28;20028;-25
2021/12/26 00:05:25;;;;;;;4.68;3.40;;;;;;;14.79;68.24;95998.31;5074357;28;20111;-26
2021/12/26 00:07:51;;;;;;;6.10;3.17;;;;;;;14.81;68.18;96007.56;5074163;28;20028;-25
2021/12/26 00:10:20;;;;;;;5.22;3.33;;;;;;;14.70;68.78;95991.72;5074038;28;20550;-26
2021/12/26 00:12:46;;;;;;;6.53;3.55;;;;;;;14.72;68.78;96002.91;5074349;28;20028;-25
2021/12/26 00:15:11;;;;;;;4.88;3.22;;;;;;;14.77;68.45;95989.84;5074088;28;20024;-25
2021/12/26 00:17:37;;;;;;;4.65;3.38;;;;;;;14.82;68.16;95997.41;5074130;28;20470;-25
2021/12/26 00:20:05;;;;;;;5.45;3.38;;;;;;;14.72;68.38;95994.72;5073978;28;20108;-25
2021/12/26 00:22:31;;;;;;;4.75;3.80;;;;;;;14.76;68.41;96001.97;5074165;28;20029;-26
2021/12/26 00:24:56;;;;;;;4.80;3.17;;;;;;;14.64;68.88;96003.72;5074259;28;20359;-25
2021/12/26 00:27:22;;;;;;;4.15;3.10;;;;;;;14.79;68.03;95998.31;5073985;28;20036;-25
2021/12/26 00:29:48;;;;;;;4.20;3.10;;;;;;;14.59;69.11;96002.34;5074074;28;20029;-26
2021/12/26 00:32:14;;;;;;;5.07;3.47;;;;;;;14.71;68.87;96000.66;5073769;28;20066;-25
2021/12/26 00:34:40;;;;;;;7.47;3.88;;;;;;;14.55;70.27;96001.78;5074063;28;20111;-25
2021/12/26 00:37:06;;;;;;;5.53;3.55;;;;;;;14.69;68.79;96003.84;5071154;28;20115;-25
2021/12/26 00:39:34;;;;;;;5.75;3.33;;;;;;;14.61;69.45;96010.84;5073785;28;20099;-25
2021/12/26 00:42:00;;;;;;;6.10;3.58;;;;;;;14.61;69.63;96007.34;5073654;28;20086;-25
2021/12/26 00:44:25;;;;;;;5.45;2.92;;;;;;;14.64;69.25;96004.47;5073482;28;20530;-25
2021/12/26 00:46:53;;;;;;;4.50;3.13;;;;;;;14.63;69.00;96013.88;5073634;28;20036;-25
2021/12/26 00:49:21;;;;;;;6.25;3.70;;;;;;;14.48;70.22;96004.84;5073598;28;20460;-25
2021/12/26 00:51:47;;;;;;;6.45;3.30;;;;;;;14.63;69.63;96000.22;5081539;28;20066;-25
2021/12/26 00:54:12;;;;;;;4.60;2.90;;;;;;;14.64;69.06;96004.47;5093846;28;20040;-26
2021/12/26 00:56:38;;;;;;;5.63;3.20;;;;;;;14.61;69.33;95999.94;5093506;28;20062;-25
2021/12/26 00:59:04;;;;;;;3.63;2.70;;;;;;;14.75;68.55;96003.94;5093756;28;20462;-25
2021/12/26 01:01:29;;;;;;;3.97;2.85;;;;;;;14.75;68.36;96003.94;5093696;28;20106;-25
2021/12/26 01:03:55;;;;;;;4.50;2.60;;;;;;;14.84;68.05;96014.06;5093556;28;20488;-25
2021/12/26 01:06:21;;;;;;;4.25;2.60;;;;;;;14.82;68.26;96005.59;5093631;28;20020;-25
2021/12/26 01:08:49;;;;;;;5.38;2.60;;;;;;;14.69;68.80;96001.13;5093195;28;20028;-25
2021/12/26 01:11:33;;;;;;;5.50;3.20;;;;;;;14.65;69.43;96021.59;5093557;28;20456;-25
2021/12/26 01:13:59;;;;;;;4.75;2.60;;;;;;;14.74;68.71;96010.63;5093446;28;20024;-25
2021/12/26 01:16:27;;;;;;;5.10;2.72;;;;;;;14.68;69.00;96015.22;5093495;28;20031;-25
2021/12/26 01:18:55;;;;;;;5.53;2.90;;;;;;;14.64;68.99;96014.63;5093349;28;20024;-25
2021/12/26 01:21:25;;;;;;;4.53;2.40;;;;;;;14.76;68.63;96015.63;5092778;28;20028;-25
2021/12/26 01:24:00;;;;;;;3.63;2.40;;;;;;;14.76;68.51;96013.66;5093289;28;20121;-25
2021/12/26 01:26:27;;;;;;;3.75;2.90;;;;;;;14.76;68.59;96019.09;5093508;28;20024;-25
2021/12/26 01:28:53;;;;;;;3.25;2.28;;;;;;;14.62;69.32;96019.78;5093192;28;20619;-25
2021/12/26 01:31:20;;;;;;;4.57;3.10;;;;;;;14.51;70.55;96020.28;5093052;28;20103;-26
2021/12/26 01:33:52;;;;;;;6.72;2.67;;;;;;;14.64;69.50;96015.38;5092215;28;20024;-25
2021/12/26 01:36:17;;;;;;;5.60;2.42;;;;;;;14.65;68.78;96019.63;5095086;28;20071;-25
2021/12/26 01:38:44;;;;;;;4.10;2.13;;;;;;;14.80;68.54;96021.69;5094898;28;20048;-25
2021/12/26 01:41:10;;;;;;;5.60;2.35;;;;;;;14.84;68.35;96016.78;5094698;28;20024;-25
2021/12/26 01:43:42;;;;;;;4.28;2.10;;;;;;;14.68;68.65;96013.25;5094711;28;20537;-25
2021/12/26 01:46:08;;;;;;;5.30;2.40;;;;;;;14.68;69.04;96013.25;5094684;28;20024;-25
2021/12/26 01:48:34;;;;;;;4.85;2.40;;;;;;;14.77;68.45;96015.16;5094565;28;20028;-25
2021/12/26 01:51:00;;;;;;;3.83;2.50;;;;;;;14.71;68.57;96017.75;5094492;28;20071;-25
2021/12/26 01:53:36;;;;;;;5.50;2.55;;;;;;;14.71;68.88;96012.31;5094774;28;20054;-25
2021/12/26 01:56:04;;;;;;;5.30;2.17;;;;;;;14.80;68.26;96018.94;5094523;28;20085;-25
2021/12/26 01:58:31;;;;;;;6.03;3.03;;;;;;;14.65;69.37;96016.91;5094433;28;20032;-25
2021/12/26 02:01:04;;;;;;;5.10;3.03;;;;;;;14.61;69.70;96021.75;5094371;28;20119;-25
2021/12/26 02:03:30;;;;;;;4.72;2.90;;;;;;;14.73;68.76;96020.03;5094582;28;20032;-25
2021/12/26 02:05:56;;;;;;;5.45;2.95;;;;;;;14.78;68.35;96013.19;5094296;28;20020;-25
2021/12/26 02:08:22;;;;;;;5.03;2.80;;;;;;;14.61;69.89;96016.28;5094593;28;20550;-25
2021/12/26 02:10:47;;;;;;;7.43;3.20;;;;;;;14.65;69.36;96003.25;5094487;28;20016;-25
2021/12/26 02:13:13;;;;;;;4.47;2.55;;;;;;;14.67;68.94;96006.28;5094497;28;20024;-25
2021/12/26 02:15:39;;;;;;;7.55;3.15;;;;;;;14.68;68.97;96007.03;5094083;28;20481;-25
2021/12/26 02:18:06;;;;;;;8.05;3.25;;;;;;;14.54;69.78;96016.66;5094054;28;20027;-25
2021/12/26 02:23:38;;;;;;;10.38;3.47;;;;;;;14.58;69.59;96011.03;5094125;28;20089;-25
2021/12/26 02:28:48;;;;;;;6.80;2.75;;;;;;;14.71;68.91;96014.31;5093824;28;20432;-25
2021/12/26 02:31:15;;;;;;;8.18;3.20;;;;;;;14.67;69.49;96003.53;5093971;28;20020;-25
2021/12/26 02:33:42;;;;;;;8.05;3.13;;;;;;;14.60;69.58;96003.13;5094184;28;20031;-25
2021/12/26 02:36:08;;;;;;;6.93;2.75;;;;;;;14.63;68.96;95997.50;5093999;28;20031;-25
2021/12/26 02:38:35;;;;;;;6.60;3.00;;;;;;;14.74;68.68;95997.72;5093808;28;20032;-25
2021/12/26 02:41:02;;;;;;;8.27;2.88;;;;;;;14.63;69.37;95989.31;5093722;28;20028;-25
2021/12/26 02:43:29;;;;;;;6.43;3.00;;;;;;;14.62;68.95;95989.75;5093698;28;20024;-25
2021/12/26 02:45:55;;;;;;;8.68;2.70;;;;;;;14.62;69.63;96001.44;5093634;28;20428;-25
2021/12/26 02:48:21;;;;;;;7.63;2.80;;;;;;;14.69;68.99;95987.47;5093654;28;20032;-25
2021/12/26 02:50:52;;;;;;;5.30;2.47;;;;;;;14.78;68.43;95992.09;5093304;28;20073;-25
2021/12/26 02:53:20;;;;;;;6.93;2.83;;;;;;;14.73;68.38;95990.00;5093943;28;20026;-25
2021/12/26 02:55:53;;;;;;;5.88;2.53;;;;;;;14.77;68.32;95984.38;5093490;28;20058;-25
2021/12/26 02:58:20;;;;;;;8.57;2.75;;;;;;;14.78;68.23;95983.91;5093837;28;20028;-25
2021/12/26 03:00:55;;;;;;;12.45;3.13;;;;;;;14.77;68.48;95989.84;5092671;28;20054;-25
2021/12/26 03:03:21;;;;;;;8.88;2.40;;;;;;;14.76;68.38;95983.63;5093532;28;20533;-25
2021/12/26 03:05:55;;;;;;;5.68;2.55;;;;;;;14.69;68.94;95987.47;5093382;28;20036;-25
2021/12/26 03:08:21;;;;;;;7.57;2.53;;;;;;;14.73;68.55;95990.75;5093633;28;20028;-25
2021/12/26 03:10:46;;;;;;;8.45;2.53;;;;;;;14.75;68.62;95990.31;5093305;28;20027;-25
2021/12/26 03:13:13;;;;;;;9.02;2.50;;;;;;;14.70;68.64;95994.44;5093401;28;20027;-25
2021/12/26 03:15:40;;;;;;;7.95;3.08;;;;;;;14.79;68.28;95998.31;5093359;28;20028;-25
2021/12/26 03:18:07;;;;;;;9.02;2.95;;;;;;;14.83;68.06;95988.75;5093174;28;20474;-25
2021/12/26 03:20:38;;;;;;;7.32;2.22;;;;;;;14.67;68.95;95997.34;5093268;28;20024;-25
2021/12/26 03:23:05;;;;;;;8.15;2.80;;;;;;;14.57;69.25;95999.34;5093583;28;20450;-25
2021/12/26 03:25:34;;;;;;;8.60;2.65;;;;;;;14.73;68.40;95992.72;5093209;28;20046;-26
2021/12/26 03:28:02;;;;;;;5.63;2.25;;;;;;;14.82;68.15;95997.41;5093183;28;20027;-25
2021/12/26 03:30:30;;;;;;;7.85;2.20;;;;;;;14.77;68.25;95996.06;5093257;28;20023;-25
2021/12/26 03:32:57;;;;;;;7.95;2.55;;;;;;;14.73;68.28;95998.94;5091743;28;20560;-25
2021/12/26 03:35:24;;;;;;;6.00;2.22;;;;;;;14.65;68.88;96005.97;5091053;28;20543;-25
2021/12/26 03:37:50;;;;;;;6.93;2.58;;;;;;;14.72;68.40;96002.91;5090548;28;20022;-25
2021/12/26 03:40:15;;;;;;;6.95;2.53;;;;;;;14.78;67.86;96011.22;5093125;28;20032;-25
2021/12/26 03:42:41;;;;;;;5.88;2.30;;;;;;;14.71;68.51;96009.56;5093116;28;20035;-25
2021/12/26 03:45:08;;;;;;;8.15;2.20;;;;;;;14.61;69.60;96004.63;5093188;28;20560;-25
2021/12/26 03:47:36;;;;;;;6.25;2.17;;;;;;;14.79;68.07;96001.06;5093349;28;20103;-25
2021/12/26 03:50:03;;;;;;;3.50;2.08;;;;;;;14.77;68.14;96006.97;5093007;28;20135;-25
2021/12/26 03:52:29;;;;;;;8.75;2.38;;;;;;;14.71;68.44;96003.38;5093021;28;20035;-25
2021/12/26 03:54:54;;;;;;;8.15;2.30;;;;;;;14.67;68.86;96011.72;5093219;28;20024;-25
2021/12/26 03:57:20;;;;;;;6.68;2.10;;;;;;;14.59;68.94;95996.13;5092619;28;20024;-25
2021/12/26 03:59:47;;;;;;;6.63;2.45;;;;;;;14.66;68.65;96012.94;5092952;28;20482;-26
2021/12/26 04:02:13;;;;;;;9.20;2.15;;;;;;;14.72;68.58;96016.53;5092702;28;20028;-25
2021/12/26 04:04:39;;;;;;;6.93;2.20;;;;;;;14.69;68.40;96008.53;5092935;28;20024;-25
2021/12/26 04:07:05;;;;;;;6.30;2.53;;;;;;;14.72;68.26;96022.00;5092894;28;20118;-25
2021/12/26 04:09:30;;;;;;;9.38;2.33;;;;;;;14.81;68.19;96015.00;5093414;28;20524;-25
2021/12/26 04:11:56;;;;;;;5.35;1.92;;;;;;;14.74;67.96;96013.34;5095672;28;20016;-25
2021/12/26 04:14:22;;;;;;;8.27;2.55;;;;;;;14.75;68.35;96025.78;5096501;28;20048;-25
2021/12/26 04:16:47;;;;;;;5.10;2.17;;;;;;;14.77;68.14;96022.59;5096591;28;20082;-25
2021/12/26 04:19:13;;;;;;;5.75;2.30;;;;;;;14.73;68.14;96023.50;5096354;28;20020;-25
2021/12/26 04:21:39;;;;;;;6.82;2.80;;;;;;;14.66;68.85;96028.56;5096537;28;20059;-25
2021/12/26 04:24:05;;;;;;;5.78;2.40;;;;;;;14.71;68.36;96023.22;5096354;28;20110;-25
2021/12/26 04:26:31;;;;;;;8.07;2.05;;;;;;;14.75;68.10;96017.59;5096535;28;20048;-25
2021/12/26 04:28:57;;;;;;;7.18;2.08;;;;;;;14.62;68.92;96023.28;5096209;28;20020;-25
2021/12/26 04:31:23;;;;;;;9.55;2.28;;;;;;;14.55;69.20;96034.53;5096276;28;20020;-25
2021/12/26 04:33:50;;;;;;;7.45;2.15;;;;;;;14.50;69.42;96021.50;5096223;28;20023;-25
2021/12/26 04:36:17;;;;;;;9.13;2.50;;;;;;;14.47;69.53;96027.88;5096457;28;20119;-25
2021/12/26 04:38:44;;;;;;;6.57;2.17;;;;;;;14.55;69.52;96022.88;5096035;28;20432;-25
2021/12/26 04:41:11;;;;;;;8.40;2.83;;;;;;;14.64;69.06;96034.47;5095998;28;20478;-25
2021/12/26 04:43:37;;;;;;;9.07;3.30;;;;;;;14.76;68.57;96029.28;5096097;28;20032;-26
2021/12/26 04:46:07;;;;;;;6.28;2.28;;;;;;;14.70;68.37;96040.84;5096192;28;20016;-25
2021/12/26 04:48:34;;;;;;;7.07;2.42;;;;;;;14.67;68.83;96024.63;5096078;28;20070;-25
2021/12/26 04:51:00;;;;;;;11.73;3.13;;;;;;;14.48;69.95;96020.44;5095686;28;20123;-25
2021/12/26 04:53:25;;;;;;;8.30;2.30;;;;;;;14.51;69.29;96031.22;5096218;28;20052;-25
2021/12/26 04:55:51;;;;;;;7.20;2.60;;;;;;;14.52;69.25;96040.16;5094431;28;20389;-25
2021/12/26 04:58:17;;;;;;;8.00;2.45;;;;;;;14.36;70.21;96038.50;5095828;28;20063;-25
2021/12/26 05:00:42;;;;;;;6.00;2.60;;;;;;;14.42;70.31;96036.72;5094276;28;20044;-25
2021/12/26 05:03:08;;;;;;;9.45;2.25;;;;;;;14.40;70.33;96043.84;5095698;28;20035;-25
2021/12/26 05:05:35;;;;;;;9.13;3.17;;;;;;;14.44;70.12;96039.75;5095719;28;20028;-25
2021/12/26 05:08:02;;;;;;;7.00;2.70;;;;;;;14.36;70.99;96052.91;5095656;28;20053;-25
2021/12/26 05:10:29;;;;;;;5.00;2.50;;;;;;;14.31;71.13;96047.34;5095299;28;20038;-25
2021/12/26 05:12:59;;;;;;;8.20;2.50;;;;;;;14.29;70.81;96055.22;5095649;28;20031;-25
2021/12/26 05:15:25;;;;;;;10.70;2.88;;;;;;;14.52;70.00;96053.78;5095374;28;20070;-25
2021/12/26 05:17:51;;;;;;;8.23;2.92;;;;;;;14.32;70.80;96049.59;5095225;28;20024;-25
2021/12/26 05:20:21;;;;;;;9.88;3.05;;;;;;;14.50;69.94;96046.06;5095241;28;20047;-25
2021/12/26 05:22:48;;;;;;;7.35;1.98;;;;;;;14.52;69.84;96040.16;5094489;28;20028;-25
2021/12/26 05:25:14;;;;;;;6.85;2.40;;;;;;;14.62;69.17;96049.81;5093941;28;20390;-25
2021/12/26 05:27:41;;;;;;;11.13;2.60;;;;;;;14.71;68.81;96055.97;5095153;28;20028;-25
2021/12/26 05:30:10;;;;;;;7.03;2.55;;;;;;;14.70;68.75;96057.22;5095036;28;20024;-25
2021/12/26 05:32:36;;;;;;;7.30;2.05;;;;;;;14.62;68.83;96047.84;5094971;28;20016;-25
2021/12/26 05:35:03;;;;;;;8.13;2.05;;;;;;;14.57;68.92;96058.63;5095233;28;20032;-25
2021/12/26 05:37:29;;;;;;;6.65;1.83;;;;;;;14.71;68.28;96047.78;5095017;28;20106;-25
2021/12/26 05:39:56;;;;;;;7.53;2.13;;;;;;;14.63;68.62;96045.88;5095042;28;20103;-25
2021/12/26 05:42:22;;;;;;;7.43;2.00;;;;;;;14.74;68.03;96054.28;5094688;28;20032;-25
2021/12/26 05:44:50;;;;;;;6.63;2.03;;;;;;;14.73;68.04;96050.81;5093541;28;20436;-25
2021/12/26 05:47:16;;;;;;;9.60;2.28;;;;;;;14.69;68.41;96047.50;5094690;28;20497;-25
2021/12/26 05:49:41;;;;;;;8.75;2.05;;;;;;;14.76;67.93;96042.91;5094745;28;20071;-25
2021/12/26 05:52:08;;;;;;;6.25;1.90;;;;;;;14.72;68.10;96043.84;5094653;28;20020;-25
2021/12/26 05:54:35;;;;;;;7.68;2.25;;;;;;;14.71;67.91;96047.06;5094722;28;20039;-25
2021/12/26 05:57:02;;;;;;;5.22;2.05;;;;;;;14.71;67.60;96047.06;5094561;28;20458;-26
2021/12/26 05:59:27;;;;;;;5.78;1.90;;;;;;;14.74;67.75;96057.78;5094546;28;20466;-25
2021/12/26 06:01:53;;;;;;;6.25;1.90;;;;;;;14.64;68.23;96053.59;5094396;28;20027;-25
2021/12/26 06:04:19;;;;;;;5.85;1.63;;;;;;;14.67;67.99;96051.91;5094741;28;20111;-25
2021/12/26 06:06:44;;;;;;;6.82;1.70;;;;;;;14.70;67.94;96045.53;5094372;28;20354;-25
2021/12/26 06:09:10;;;;;;;5.45;1.77;;;;;;;14.70;67.96;96046.28;5094194;28;20035;-25
2021/12/26 06:11:36;;;;;;;6.25;2.92;;;;;;;14.70;67.91;96049.03;5094463;28;20020;-26
2021/12/26 06:14:02;;;;;;;6.07;1.70;;;;;;;14.69;67.83;96042.06;5094416;28;20028;-25
2021/12/26 06:16:28;;;;;;;8.45;2.60;;;;;;;14.73;67.53;96047.31;5094576;28;20476;-25
2021/12/26 06:18:53;;;;;;;3.47;1.55;;;;;;;14.64;68.17;96039.94;5094065;28;20424;-25
2021/12/26 06:21:19;;;;;;;4.45;1.67;;;;;;;14.74;67.49;96044.13;5094198;28;20020;-25
2021/12/26 06:23:51;;;;;;;4.43;1.63;;;;;;;14.68;67.97;96045.25;5094036;28;20031;-25
2021/12/26 06:26:22;;;;;;;5.05;1.73;;;;;;;14.62;67.85;96038.88;5094197;28;20028;-25
2021/12/26 06:28:47;;;;;;;4.90;1.80;;;;;;;14.60;68.09;96035.84;5094092;28;20492;-25
2021/12/26 06:31:13;;;;;;;4.43;1.67;;;;;;;14.52;68.56;96048.34;5093943;28;20044;-25
2021/12/26 06:33:39;;;;;;;4.78;1.58;;;;;;;14.61;67.98;96053.75;5093362;28;20481;-25
2021/12/26 06:36:05;;;;;;;5.30;2.00;;;;;;;14.56;68.21;96046.22;5093426;28;20027;-25
2021/12/26 06:38:34;;;;;;;8.55;1.92;;;;;;;14.48;68.42;96047.75;5093877;28;20078;-25
2021/12/26 06:41:00;;;;;;;4.25;1.55;;;;;;;14.65;67.84;96046.91;5093833;28;20020;-25
2021/12/26 06:43:26;;;;;;;5.40;1.88;;;;;;;14.69;67.45;96044.78;5093736;28;20024;-25
2021/12/26 06:45:53;;;;;;;5.85;1.80;;;;;;;14.78;67.38;96040.50;5093747;28;20030;-25
2021/12/26 06:48:19;;;;;;;4.68;1.65;;;;;;;14.69;67.45;96055.69;5092389;28;20385;-25
2021/12/26 06:50:45;;;;;;;4.22;1.40;;;;;;;14.54;68.08;96040.44;5093560;28;20046;-25
2021/12/26 06:53:11;;;;;;;5.75;1.92;;;;;;;14.37;68.66;96048.22;5093744;28;20028;-25
2021/12/26 06:55:37;;;;;;;5.53;1.70;;;;;;;14.41;68.78;96051.56;5093682;28;20050;-25
2021/12/26 06:58:03;;;;;;;5.20;1.70;;;;;;;14.52;68.25;96056.53;5092367;28;20028;-25
2021/12/26 07:00:29;;;;;;;4.57;1.45;;;;;;;14.31;69.45;96052.78;5091508;28;20052;-25
2021/12/26 07:02:54;;;;;;;6.22;1.70;;;;;;;14.37;68.72;96046.22;5091459;28;20089;-25
2021/12/26 07:05:20;;;;;;;3.65;1.63;;;;;;;14.48;68.46;96039.56;5090224;28;20404;-25
2021/12/26 07:07:46;;;;;;;8.90;1.75;;;;;;;14.60;67.93;96044.81;5091469;28;20036;-25
2021/12/26 07:10:12;;;;;;;3.85;1.42;;;;;;;14.51;68.32;96047.59;5091711;28;20020;-25
2021/12/26 07:12:37;;;;;;;4.90;1.63;;;;;;;14.57;67.96;96043.03;5091296;28;20028;-25
2021/12/26 07:15:04;;;;;;;6.65;1.65;;;;;;;14.63;67.82;96045.88;5091568;28;20085;-25
2021/12/26 07:17:29;;;;;;;5.82;2.03;;;;;;;14.53;67.99;96036.97;5091381;28;20030;-25
2021/12/26 07:19:55;;;;;;;4.18;1.67;;;;;;;14.38;68.44;96041.53;5091313;28;20103;-25
2021/12/26 07:22:20;;;;;;;3.33;1.40;;;;;;;14.58;67.96;96041.06;5091230;28;20055;-25
2021/12/26 07:24:47;;;;;;;7.00;1.50;;;;;;;14.47;68.07;96038.78;5091075;28;20166;-25
2021/12/26 07:27:16;;;;;;;5.05;1.55;;;;;;;14.39;68.48;96037.59;5091153;28;20497;-25
2021/12/26 07:29:42;;;;;;;6.15;1.65;;;;;;;14.65;67.36;96035.25;5091407;28;20039;-25
2021/12/26 07:32:10;;;;;;;5.53;1.70;;;;;;;14.67;67.48;96036.31;5091362;28;20032;-26
2021/12/26 07:34:35;;;;;;;5.53;1.50;;;;;;;14.60;67.75;96031.16;5091207;28;20394;-25
2021/12/26 07:37:03;;;;;;;6.20;1.50;;;;;;;14.66;67.09;96042.97;5091021;28;20024;-25
2021/12/26 07:39:28;;;;;;;3.65;1.75;;;;;;;14.74;66.89;96035.94;5091336;28;20028;-25
2021/12/26 07:41:54;;;;;;;4.63;1.90;;;;;;;14.67;67.30;96025.38;5091233;28;20070;-25
2021/12/26 07:44:19;;;;;;;4.93;1.48;;;;;;;14.54;67.73;96027.56;5091120;28;20497;-25
2021/12/26 07:46:45;;;;;;;3.83;1.50;;;;;;;14.39;68.36;96015.78;5093801;28;20061;-25
2021/12/26 07:49:10;;;;;;;6.78;1.70;;;;;;;14.19;69.34;96029.19;5094620;28;20453;-25
2021/12/26 07:51:36;;;;;;;5.70;1.33;;;;;;;14.08;69.91;96023.47;5095020;28;20519;-25
2021/12/26 07:54:02;;;;;;;5.20;1.30;;;;;;;13.82;70.84;96029.28;5095084;28;20050;-24
2021/12/26 07:56:29;;;;;;;8.32;1.73;;;;;;;13.80;71.01;96026.25;5095040;28;20401;-25
2021/12/26 07:58:55;;;;;;;4.70;1.40;;;;;;;13.94;70.39;96025.63;5094965;28;20024;-25
2021/12/26 08:01:20;;;;;;;4.05;1.98;;;;;;;14.24;69.42;96028.53;5092591;28;20140;-25
2021/12/26 08:03:46;;;;;;;3.42;1.40;;;;;;;14.30;69.09;96021.28;5094782;28;20529;-25
2021/12/26 08:06:19;;;;;;;5.85;1.30;;;;;;;14.36;68.69;96028.34;5094810;28;20474;-25
2021/12/26 08:08:46;;;;;;;4.90;1.27;;;;;;;14.41;68.42;96018.06;5094893;28;20024;-25
2021/12/26 08:11:12;;;;;;;5.10;1.40;;;;;;;14.25;69.25;96010.97;5094581;28;20077;-25
2021/12/26 08:13:37;;;;;;;2.35;1.10;;;;;;;14.24;69.33;96014.91;5094313;28;20024;-25
2021/12/26 08:16:03;;;;;;;4.80;1.40;;;;;;;14.18;69.65;96017.53;5094562;28;20617;-25
2021/12/26 08:18:29;;;;;;;6.22;1.48;;;;;;;14.37;68.84;96029.09;5094602;28;20035;-25
2021/12/26 08:20:54;;;;;;;5.43;1.42;;;;;;;14.42;68.65;96028.53;5094488;28;20024;-25
2021/12/26 08:23:20;;;;;;;4.15;1.40;;;;;;;14.15;69.75;96036.75;5094548;28;20020;-25
2021/12/26 08:25:46;;;;;;;6.47;2.55;;;;;;;14.01;70.29;96038.91;5094234;28;20028;-25
2021/12/26 08:28:14;;;;;;;10.98;4.22;;;;;;;14.19;69.67;96029.19;5094377;28;20035;-25
2021/12/26 08:30:40;;;;;;;9.63;3.75;;;;;;;14.23;69.61;96029.75;5094300;28;20104;-25
2021/12/26 08:33:07;;;;;;;10.38;4.20;;;;;;;14.39;68.79;96013.03;5094285;28;20028;-25
2021/12/26 08:35:33;;;;;;;16.25;7.30;;;;;;;14.03;70.52;96028.31;5094078;28;20028;-25
2021/12/26 08:37:59;;;;;;;15.85;6.28;;;;;;;14.43;68.73;96043.69;5093986;28;20053;-25
2021/12/26 08:40:25;;;;;;;11.57;5.63;;;;;;;14.54;68.35;96033.03;5093958;28;20024;-25
2021/12/26 08:42:50;;;;;;;10.07;4.57;;;;;;;14.67;67.56;96049.94;5093970;28;20032;-25
2021/12/26 08:45:16;;;;;;;13.68;5.03;;;;;;;14.70;67.27;96045.53;5094224;28;20043;-25
2021/12/26 08:47:41;;;;;;;13.60;4.55;;;;;;;14.73;67.22;96045.34;5094092;28;20028;-25
2021/12/26 08:50:10;;;;;;;9.40;4.38;;;;;;;14.57;67.93;96048.47;5093552;28;20044;-25
2021/12/26 08:52:36;;;;;;;9.95;4.53;;;;;;;14.61;67.54;96054.50;5093825;28;20035;-25
2021/12/26 08:55:01;;;;;;;10.40;4.95;;;;;;;14.48;68.72;96040.31;5093868;28;20028;-25
2021/12/26 08:57:27;;;;;;;10.63;4.38;;;;;;;14.38;69.11;96064.13;5092878;28;20080;-25
2021/12/26 08:59:53;;;;;;;11.45;4.75;;;;;;;14.34;69.50;96058.06;5091788;28;20585;-25
2021/12/26 09:02:18;;;;;;;9.50;4.47;;;;;;;14.54;68.30;96054.84;5093451;28;20073;-25
2021/12/26 09:04:44;;;;;;;10.20;4.55;;;;;;;14.55;68.55;96055.59;5093390;28;20032;-25
2021/12/26 09:07:10;;;;;;;9.38;3.80;;;;;;;14.50;68.50;96054.25;5093635;28;20043;-25
2021/12/26 09:09:36;;;;;;;10.73;4.10;;;;;;;14.51;68.81;96072.13;5093443;28;20020;-25
2021/12/26 09:12:03;;;;;;;10.65;3.83;;;;;;;14.28;70.00;96067.34;5093360;28;20362;-25
2021/12/26 09:14:29;;;;;;;7.15;3.10;;;;;;;14.48;68.78;96067.59;5093476;28;20093;-26
2021/12/26 09:16:56;;;;;;;7.75;2.67;;;;;;;14.08;71.15;96100.56;5093455;28;20032;-25
2021/12/26 09:19:23;;;;;;;9.85;3.20;;;;;;;14.08;71.00;96053.47;5093414;28;20032;-26
2021/12/26 09:21:49;;;;;;;6.70;2.83;;;;;;;13.95;71.44;96048.94;5091921;28;20495;-25
2021/12/26 09:24:15;;;;;;;6.30;2.88;;;;;;;14.33;70.18;96050.38;5093056;28;20066;-25
2021/12/26 09:26:40;;;;;;;6.63;3.10;;;;;;;14.47;69.38;96038.78;5093296;28;20051;-25
2021/12/26 09:29:06;;;;;;;7.47;2.80;;;;;;;14.57;68.49;96042.25;5093122;28;20385;-25
2021/12/26 09:31:31;;;;;;;6.03;2.58;;;;;;;14.43;69.31;96045.66;5093138;28;20027;-25
2021/12/26 09:33:57;;;;;;;6.85;2.88;;;;;;;14.34;69.59;96051.88;5093322;28;20025;-25
2021/12/26 09:36:23;;;;;;;5.70;2.65;;;;;;;14.57;68.53;96069.56;5092947;28;20460;-25
2021/12/26 09:38:48;;;;;;;8.07;2.65;;;;;;;14.37;69.38;96078.22;5093104;28;20031;-25
2021/12/26 09:41:14;;;;;;;5.35;2.97;;;;;;;14.28;70.29;96043.53;5092891;28;20362;-25
2021/12/26 09:43:40;;;;;;;4.80;2.42;;;;;;;14.11;70.96;96038.88;5092863;28;20035;-25
2021/12/26 09:46:05;;;;;;;5.95;2.42;;;;;;;14.40;69.35;96033.69;5092912;28;20020;-25
2021/12/26 09:48:30;;;;;;;3.63;1.90;;;;;;;14.47;69.03;96033.34;5092533;28;20027;-25
2021/12/26 09:50:58;;;;;;;4.65;2.22;;;;;;;13.98;70.99;96049.97;5092581;28;20044;-25
2021/12/26 09:53:23;;;;;;;7.00;2.72;;;;;;;14.31;70.05;96039.16;5092663;28;20024;-25
2021/12/26 09:55:50;;;;;;;4.95;1.92;;;;;;;14.43;69.39;96030.03;5092403;28;20474;-25
2021/12/26 09:58:16;;;;;;;5.20;1.80;;;;;;;13.89;71.59;96025.47;5092419;28;20024;-25
2021/12/26 10:00:44;;;;;;;5.03;2.10;;;;;;;14.25;70.34;96040.97;5090571;28;20027;-25
2021/12/26 10:03:36;;;;;;;6.78;1.83;;;;;;;14.21;70.47;96016.59;5092604;28;20499;-25
2021/12/26 10:06:04;;;;;;;4.47;1.95;;;;;;;14.19;70.75;96029.19;5089482;28;20048;-25
2021/12/26 10:08:31;;;;;;;5.57;2.35;;;;;;;14.30;70.38;96015.81;5092228;28;20024;-25
2021/12/26 10:11:14;;;;;;;6.43;2.42;;;;;;;14.18;71.10;96005.84;5092398;28;20024;-25
2021/12/26 10:13:41;;;;;;;6.07;2.60;;;;;;;14.05;71.61;96025.13;5092152;28;20028;-25
2021/12/26 10:16:07;;;;;;;4.25;1.98;;;;;;;14.01;71.67;96030.72;5092354;28;20024;-25
2021/12/26 10:18:32;;;;;;;4.43;1.63;;;;;;;14.16;70.91;96019.94;5092086;28;20029;-25
2021/12/26 10:20:58;;;;;;;5.25;2.20;;;;;;;14.29;70.67;96012.31;5091992;28;20114;-25
2021/12/26 10:23:25;;;;;;;7.55;2.60;;;;;;;14.23;70.75;96014.16;5092152;28;20035;-25
2021/12/26 10:25:51;;;;;;;3.90;1.88;;;;;;;13.76;72.89;96011.25;5091868;28;20027;-25
2021/12/26 10:28:17;;;;;;;5.40;2.10;;;;;;;14.01;71.66;96002.72;5092124;28;20051;-25
2021/12/26 10:30:44;;;;;;;4.95;1.58;;;;;;;14.24;70.61;95991.13;5091956;28;20385;-25
2021/12/26 10:33:09;;;;;;;3.53;1.67;;;;;;;14.43;69.79;95994.56;5092014;28;20032;-25
2021/12/26 10:35:35;;;;;;;3.25;1.88;;;;;;;14.34;70.26;95994.59;5091821;28;20032;-25
2021/12/26 10:38:00;;;;;;;4.78;2.33;;;;;;;13.87;72.15;95997.91;5091621;28;20047;-25
2021/12/26 10:40:31;;;;;;;4.55;2.58;;;;;;;14.26;70.49;95983.25;5091755;28;20095;-25
2021/12/26 10:42:59;;;;;;;3.85;2.08;;;;;;;14.17;70.85;95982.53;5090335;28;20073;-25
2021/12/26 10:45:30;;;;;;;4.30;1.95;;;;;;;14.00;71.38;95979.38;5091320;28;20031;-25
2021/12/26 10:48:00;;;;;;;6.05;2.20;;;;;;;14.30;70.56;95975.66;5091229;28;20054;-25
2021/12/26 10:50:28;;;;;;;3.30;1.75;;;;;;;14.34;70.02;95970.03;5090950;28;20052;-25
2021/12/26 10:52:59;;;;;;;4.18;1.92;;;;;;;14.35;69.93;95998.81;5075104;28;20020;-25
2021/12/26 10:55:30;;;;;;;3.70;2.00;;;;;;;14.16;70.85;95981.00;5091148;28;20458;-25
2021/12/26 10:57:57;;;;;;;3.42;1.92;;;;;;;14.24;70.62;95974.00;5091207;28;20146;-26
2021/12/26 11:00:32;;;;;;;5.03;2.17;;;;;;;14.14;70.61;95973.28;5088969;28;20552;-25
2021/12/26 11:03:11;;;;;;;5.63;2.42;;;;;;;14.05;71.32;95961.66;5090057;28;20032;-25
2021/12/26 11:05:44;;;;;;;4.55;2.15;;;;;;;13.79;72.03;95953.88;5070226;28;20504;-25
2021/12/26 11:08:13;;;;;;;;;;;;;;;13.83;72.43;95978.25;5100324;28;20032;-25
2021/12/26 11:10:44;;;;;;;5.40;1.77;;;;;;;13.84;72.38;95966.13;5091933;28;19934;-25
2021/12/26 11:13:21;;;;;;;4.88;2.00;;;;;;;14.09;71.25;95965.00;5091774;28;20024;-25
2021/12/26 11:15:48;;;;;;;4.30;2.00;;;;;;;14.31;70.13;95960.81;5092085;28;20024;-25
2021/12/26 11:18:16;;;;;;;4.70;2.33;;;;;;;14.21;70.29;95966.75;5091523;28;20024;-25
2021/12/26 11:20:46;;;;;;;4.25;1.95;;;;;;;14.30;70.28;95962.00;5092580;28;20027;-25
2021/12/26 11:23:18;;;;;;;6.50;2.15;;;;;;;14.53;69.31;95955.09;5095436;28;20032;-25
2021/12/26 11:25:52;;;;;;;5.10;2.22;;;;;;;13.81;72.32;95970.53;5097043;28;20521;-25
2021/12/26 11:28:26;;;;;;;4.18;1.90;;;;;;;14.00;71.16;95957.59;5096710;28;20032;-25
2021/12/26 11:30:54;;;;;;;4.75;1.70;;;;;;;14.27;70.16;95964.91;5094525;28;20024;-25
2021/12/26 11:33:20;;;;;;;4.88;2.15;;;;;;;14.38;69.37;95949.53;5096294;28;20063;-25
2021/12/26 11:35:48;;;;;;;3.25;1.80;;;;;;;14.08;70.96;95947.13;5094911;28;20066;-25
2021/12/26 11:38:18;;;;;;;6.47;2.30;;;;;;;14.17;70.22;95953.28;5096683;28;20385;-25